ORMM/BSR METAR and TAF weather

Enter ICAO airport designator
Station Type Date Time Source
ORMM METAR 2023/01/30 10:00 UTC NOAA

ORMM 301000Z 10009KT 7000 NSC 14/13 Q1013 NOSIG


Station Type Date Time Source
ORMM Decoded METAR 2023/01/30 10:00 UTC NOAA

Station name not available
Jan 30, 2023 - 05:00 AM EST / 2023.01.30 1000 UTC
Wind: from the E (100 degrees) at 10 MPH (9 KT):0
Visibility: 4 mile(s):0
Temperature: 57 F (14 C)
Dew Point: 55 F (13 C)
Relative Humidity: 93%
Pressure (altimeter): 29.91 in. Hg (1013 hPa)
ob: ORMM 301000Z 10009KT 7000 NSC 14/13 Q1013 NOSIG
cycle: 10

Station Type Date Time Source
ORMM TAF 2023/01/30 12:09 UTC NOAA

TAF TAF ORMM 301000Z 3012/3112 12015G25KT 4000 BR SCT030 SCT035 BKN100
TEMPO 3012/3022 2000 TSSHRA FEW025CB

Example: see airport list